sensor_id;sensor_type;location;lat;lon;timestamp;pressure;altitude;pressure_sealevel;temperature;humidity
21504;BME280;10913;51.992;9.228;2022-10-16T00:00:46;99843.47;;;13.92;100.00
21504;BME280;10913;51.992;9.228;2022-10-16T00:03:11;99844.38;;;13.91;100.00
21504;BME280;10913;51.992;9.228;2022-10-16T00:05:42;99847.03;;;13.91;100.00
21504;BME280;10913;51.992;9.228;2022-10-16T00:08:09;99849.72;;;13.90;100.00
21504;BME280;10913;51.992;9.228;2022-10-16T00:10:35;99845.38;;;13.87;100.00
21504;BME280;10913;51.992;9.228;2022-10-16T00:13:01;99846.38;;;13.82;100.00
21504;BME280;10913;51.992;9.228;2022-10-16T00:15:27;99850.97;;;13.76;100.00
21504;BME280;10913;51.992;9.228;2022-10-16T00:17:52;99864.28;;;13.75;100.00
21504;BME280;10913;51.992;9.228;2022-10-16T00:20:20;99866.94;;;13.75;100.00
21504;BME280;10913;51.992;9.228;2022-10-16T00:22:46;99865.25;;;13.72;100.00
21504;BME280;10913;51.992;9.228;2022-10-16T00:25:11;99860.84;;;13.71;100.00
21504;BME280;10913;51.992;9.228;2022-10-16T00:27:36;99859.06;;;13.72;100.00
21504;BME280;10913;51.992;9.228;2022-10-16T00:30:02;99856.41;;;13.72;100.00
21504;BME280;10913;51.992;9.228;2022-10-16T00:32:28;99866.16;;;13.71;100.00
21504;BME280;10913;51.992;9.228;2022-10-16T00:34:56;99868.00;;;13.68;100.00
21504;BME280;10913;51.992;9.228;2022-10-16T00:37:22;99863.56;;;13.68;100.00
21504;BME280;10913;51.992;9.228;2022-10-16T00:39:47;99865.34;;;13.68;100.00
21504;BME280;10913;51.992;9.228;2022-10-16T00:42:17;99869.78;;;13.67;100.00
21504;BME280;10913;51.992;9.228;2022-10-16T00:44:55;99868.09;;;13.65;100.00
21504;BME280;10913;51.992;9.228;2022-10-16T00:49:59;99864.63;;;13.61;100.00
21504;BME280;10913;51.992;9.228;2022-10-16T00:52:27;99872.63;;;13.60;100.00
21504;BME280;10913;51.992;9.228;2022-10-16T00:54:54;99874.38;;;13.61;100.00
21504;BME280;10913;51.992;9.228;2022-10-16T00:57:20;99864.78;;;13.57;100.00
21504;BME280;10913;51.992;9.228;2022-10-16T00:59:45;99862.13;;;13.57;100.00
21504;BME280;10913;51.992;9.228;2022-10-16T01:02:14;99858.63;;;13.55;100.00
21504;BME280;10913;51.992;9.228;2022-10-16T01:04:44;99866.59;;;13.55;100.00
21504;BME280;10913;51.992;9.228;2022-10-16T01:17:43;99866.72;;;13.50;100.00
21504;BME280;10913;51.992;9.228;2022-10-16T01:20:30;99867.66;;;13.48;100.00
21504;BME280;10913;51.992;9.228;2022-10-16T01:26:10;99869.53;;;13.42;100.00
21504;BME280;10913;51.992;9.228;2022-10-16T01:31:09;99883.88;;;13.35;100.00
21504;BME280;10913;51.992;9.228;2022-10-16T01:33:42;99883.97;;;13.32;100.00
21504;BME280;10913;51.992;9.228;2022-10-16T01:36:15;99884.03;;;13.29;100.00
21504;BME280;10913;51.992;9.228;2022-10-16T01:38:44;99877.84;;;13.29;100.00
21504;BME280;10913;51.992;9.228;2022-10-16T01:41:15;99877.94;;;13.26;100.00
21504;BME280;10913;51.992;9.228;2022-10-16T01:43:48;99887.69;;;13.24;100.00
21504;BME280;10913;51.992;9.228;2022-10-16T01:46:18;99882.44;;;13.22;100.00
21504;BME280;10913;51.992;9.228;2022-10-16T01:48:44;99896.59;;;13.21;100.00
21504;BME280;10913;51.992;9.228;2022-10-16T01:51:12;99896.59;;;13.21;100.00
21504;BME280;10913;51.992;9.228;2022-10-16T01:53:40;99898.38;;;13.21;100.00
21504;BME280;10913;51.992;9.228;2022-10-16T01:56:09;99904.59;;;13.20;100.00
21504;BME280;10913;51.992;9.228;2022-10-16T01:58:41;99911.63;;;13.21;100.00
21504;BME280;10913;51.992;9.228;2022-10-16T02:01:09;99916.94;;;13.21;100.00
21504;BME280;10913;51.992;9.228;2022-10-16T02:03:37;99922.34;;;13.18;100.00
21504;BME280;10913;51.992;9.228;2022-10-16T02:06:06;99917.06;;;13.16;100.00
21504;BME280;10913;51.992;9.228;2022-10-16T02:08:32;99916.16;;;13.17;100.00
21504;BME280;10913;51.992;9.228;2022-10-16T02:10:59;99917.94;;;13.17;100.00
21504;BME280;10913;51.992;9.228;2022-10-16T02:13:27;99926.78;;;13.17;100.00
21504;BME280;10913;51.992;9.228;2022-10-16T02:15:54;99932.09;;;13.17;100.00
21504;BME280;10913;51.992;9.228;2022-10-16T02:18:19;99927.66;;;13.18;100.00
21504;BME280;10913;51.992;9.228;2022-10-16T02:26:15;99914.47;;;13.13;100.00
21504;BME280;10913;51.992;9.228;2022-10-16T02:28:53;99918.94;;;13.11;100.00
21504;BME280;10913;51.992;9.228;2022-10-16T02:31:26;99911.88;;;13.10;100.00
21504;BME280;10913;51.992;9.228;2022-10-16T02:33:54;99903.97;;;13.07;100.00
21504;BME280;10913;51.992;9.228;2022-10-16T02:36:21;99907.53;;;13.06;100.00
21504;BME280;10913;51.992;9.228;2022-10-16T02:38:47;99912.91;;;13.03;100.00
21504;BME280;10913;51.992;9.228;2022-10-16T02:41:13;99913.78;;;13.03;100.00
21504;BME280;10913;51.992;9.228;2022-10-16T02:43:39;99918.28;;;13.00;100.00
21504;BME280;10913;51.992;9.228;2022-10-16T02:46:04;99913.13;;;12.94;100.00
21504;BME280;10913;51.992;9.228;2022-10-16T02:48:30;99907.16;;;12.84;100.00
21504;BME280;10913;51.992;9.228;2022-10-16T02:50:55;99907.22;;;12.81;100.00
21504;BME280;10913;51.992;9.228;2022-10-16T02:53:22;99904.59;;;12.80;100.00
21504;BME280;10913;51.992;9.228;2022-10-16T02:55:47;99910.78;;;12.80;100.00
21504;BME280;10913;51.992;9.228;2022-10-16T02:58:13;99909.91;;;12.80;100.00
21504;BME280;10913;51.992;9.228;2022-10-16T03:00:38;99906.34;;;12.81;100.00
21504;BME280;10913;51.992;9.228;2022-10-16T03:03:03;99914.28;;;12.81;100.00
21504;BME280;10913;51.992;9.228;2022-10-16T03:05:29;99909.91;;;12.80;100.00
21504;BME280;10913;51.992;9.228;2022-10-16T03:07:54;99911.75;;;12.77;100.00
21504;BME280;10913;51.992;9.228;2022-10-16T03:10:20;99910.00;;;12.76;100.00
21504;BME280;10913;51.992;9.228;2022-10-16T03:12:46;99895.06;;;12.72;100.00
21504;BME280;10913;51.992;9.228;2022-10-16T03:15:11;99889.81;;;12.69;100.00
21504;BME280;10913;51.992;9.228;2022-10-16T03:17:37;99886.31;;;12.67;100.00
21504;BME280;10913;51.992;9.228;2022-10-16T03:20:03;99897.81;;;12.66;100.00
21504;BME280;10913;51.992;9.228;2022-10-16T03:22:28;99910.19;;;12.67;100.00
21504;BME280;10913;51.992;9.228;2022-10-16T03:24:54;99900.47;;;12.66;100.00
21504;BME280;10913;51.992;9.228;2022-10-16T03:27:19;99905.84;;;12.63;100.00
21504;BME280;10913;51.992;9.228;2022-10-16T03:29:44;99922.69;;;12.61;100.00
21504;BME280;10913;51.992;9.228;2022-10-16T03:32:10;99920.06;;;12.59;100.00
21504;BME280;10913;51.992;9.228;2022-10-16T03:34:35;99931.59;;;12.58;100.00
21504;BME280;10913;51.992;9.228;2022-10-16T03:37:00;99933.41;;;12.56;100.00
21504;BME280;10913;51.992;9.228;2022-10-16T03:39:26;99929.03;;;12.54;100.00
21504;BME280;10913;51.992;9.228;2022-10-16T03:41:52;99933.44;;;12.53;100.00
21504;BME280;10913;51.992;9.228;2022-10-16T03:44:17;99929.94;;;12.53;100.00
21504;BME280;10913;51.992;9.228;2022-10-16T03:46:42;99918.47;;;12.51;100.00
21504;BME280;10913;51.992;9.228;2022-10-16T03:49:08;99916.75;;;12.50;100.00
21504;BME280;10913;51.992;9.228;2022-10-16T03:51:33;99921.16;;;12.49;100.00
21504;BME280;10913;51.992;9.228;2022-10-16T03:53:58;99918.53;;;12.49;100.00
21504;BME280;10913;51.992;9.228;2022-10-16T03:56:24;99918.53;;;12.48;100.00
21504;BME280;10913;51.992;9.228;2022-10-16T03:58:49;99923.91;;;12.45;100.00
21504;BME280;10913;51.992;9.228;2022-10-16T04:01:15;99927.47;;;12.42;100.00
21504;BME280;10913;51.992;9.228;2022-10-16T04:03:40;99934.56;;;12.41;100.00
21504;BME280;10913;51.992;9.228;2022-10-16T04:06:05;99931.00;;;12.42;100.00
21504;BME280;10913;51.992;9.228;2022-10-16T04:08:31;99945.13;;;12.43;100.00
21504;BME280;10913;51.992;9.228;2022-10-16T04:10:59;99941.56;;;12.44;100.00
21504;BME280;10913;51.992;9.228;2022-10-16T04:13:24;99943.31;;;12.45;100.00
21504;BME280;10913;51.992;9.228;2022-10-16T04:15:50;99947.78;;;12.43;100.00
21504;BME280;10913;51.992;9.228;2022-10-16T04:18:15;99947.78;;;12.43;100.00
21504;BME280;10913;51.992;9.228;2022-10-16T04:20:40;99939.78;;;12.45;100.00
21504;BME280;10913;51.992;9.228;2022-10-16T04:23:06;99944.19;;;12.46;100.00
21504;BME280;10913;51.992;9.228;2022-10-16T04:25:31;99937.13;;;12.46;100.00
21504;BME280;10913;51.992;9.228;2022-10-16T04:27:56;99930.06;;;12.45;100.00
21504;BME280;10913;51.992;9.228;2022-10-16T04:30:22;99940.69;;;12.43;100.00
21504;BME280;10913;51.992;9.228;2022-10-16T04:32:49;99939.84;;;12.41;100.00
21504;BME280;10913;51.992;9.228;2022-10-16T04:35:16;99939.88;;;12.40;100.00
21504;BME280;10913;51.992;9.228;2022-10-16T04:37:41;99935.56;;;12.36;100.00
21504;BME280;10913;51.992;9.228;2022-10-16T04:40:07;99934.72;;;12.34;100.00
21504;BME280;10913;51.992;9.228;2022-10-16T04:42:32;99942.66;;;12.35;100.00
21504;BME280;10913;51.992;9.228;2022-10-16T04:44:58;99947.03;;;12.36;100.00
21504;BME280;10913;51.992;9.228;2022-10-16T04:47:23;99947.91;;;12.37;100.00
21504;BME280;10913;51.992;9.228;2022-10-16T04:49:48;99955.78;;;12.40;100.00
21504;BME280;10913;51.992;9.228;2022-10-16T04:52:14;99961.03;;;12.41;100.00
21504;BME280;10913;51.992;9.228;2022-10-16T04:54:40;99963.72;;;12.40;100.00
21504;BME280;10913;51.992;9.228;2022-10-16T04:57:05;99969.09;;;12.38;100.00
21504;BME280;10913;51.992;9.228;2022-10-16T04:59:30;99970.88;;;12.36;100.00
21504;BME280;10913;51.992;9.228;2022-10-16T05:01:56;99964.69;;;12.37;100.00
21504;BME280;10913;51.992;9.228;2022-10-16T05:04:21;99964.69;;;12.37;100.00
21504;BME280;10913;51.992;9.228;2022-10-16T05:06:47;99964.69;;;12.37;100.00
21504;BME280;10913;51.992;9.228;2022-10-16T05:09:13;99961.13;;;12.38;100.00
21504;BME280;10913;51.992;9.228;2022-10-16T05:11:38;99970.84;;;12.38;100.00
21504;BME280;10913;51.992;9.228;2022-10-16T05:14:03;99969.13;;;12.37;100.00
21504;BME280;10913;51.992;9.228;2022-10-16T05:16:29;99984.03;;;12.39;100.00
21504;BME280;10913;51.992;9.228;2022-10-16T05:18:55;99984.03;;;12.39;100.00
21504;BME280;10913;51.992;9.228;2022-10-16T05:21:21;99985.81;;;12.39;100.00
21504;BME280;10913;51.992;9.228;2022-10-16T05:23:46;99989.41;;;12.38;100.00
21504;BME280;10913;51.992;9.228;2022-10-16T05:26:11;99978.84;;;12.36;100.00
21504;BME280;10913;51.992;9.228;2022-10-16T05:28:37;99988.56;;;12.36;100.00
21504;BME280;10913;51.992;9.228;2022-10-16T05:31:06;99996.50;;;12.36;100.00
21504;BME280;10913;51.992;9.228;2022-10-16T05:33:32;99989.47;;;12.33;100.00
21504;BME280;10913;51.992;9.228;2022-10-16T05:36:04;99979.81;;;12.31;100.00
21504;BME280;10913;51.992;9.228;2022-10-16T05:38:30;99978.13;;;12.27;100.00
21504;BME280;10913;51.992;9.228;2022-10-16T05:40:55;99983.47;;;12.24;100.00
21504;BME280;10913;51.992;9.228;2022-10-16T05:43:22;99996.72;;;12.22;100.00
21504;BME280;10913;51.992;9.228;2022-10-16T05:46:03;100002.91;;;12.23;100.00
21504;BME280;10913;51.992;9.228;2022-10-16T05:48:29;100009.09;;;12.22;100.00
21504;BME280;10913;51.992;9.228;2022-10-16T05:51:03;100013.50;;;12.23;100.00
21504;BME280;10913;51.992;9.228;2022-10-16T05:53:30;100005.53;;;12.24;100.00
21504;BME280;10913;51.992;9.228;2022-10-16T05:55:56;100004.66;;;12.24;100.00
21504;BME280;10913;51.992;9.228;2022-10-16T05:58:22;100004.59;;;12.27;100.00
21504;BME280;10913;51.992;9.228;2022-10-16T06:00:55;100013.41;;;12.29;100.00
21504;BME280;10913;51.992;9.228;2022-10-16T06:03:21;100022.19;;;12.31;100.00
21504;BME280;10913;51.992;9.228;2022-10-16T06:05:46;100034.53;;;12.32;100.00
21504;BME280;10913;51.992;9.228;2022-10-16T06:08:11;100033.63;;;12.34;100.00
21504;BME280;10913;51.992;9.228;2022-10-16T06:10:37;100029.16;;;12.36;100.00
21504;BME280;10913;51.992;9.228;2022-10-16T06:13:02;100029.09;;;12.39;100.00
21504;BME280;10913;51.992;9.228;2022-10-16T06:15:27;100034.31;;;12.42;100.00
21504;BME280;10913;51.992;9.228;2022-10-16T06:17:53;100041.34;;;12.45;100.00
21504;BME280;10913;51.992;9.228;2022-10-16T06:20:18;100043.03;;;12.49;100.00
21504;BME280;10913;51.992;9.228;2022-10-16T06:22:43;100042.16;;;12.49;100.00
21504;BME280;10913;51.992;9.228;2022-10-16T06:25:09;100050.09;;;12.50;100.00
21504;BME280;10913;51.992;9.228;2022-10-16T06:27:34;100060.66;;;12.53;100.00
21504;BME280;10913;51.992;9.228;2022-10-16T06:29:59;100057.06;;;12.56;100.00
21504;BME280;10913;51.992;9.228;2022-10-16T06:32:25;100057.84;;;12.59;100.00
21504;BME280;10913;51.992;9.228;2022-10-16T06:34:52;100063.09;;;12.62;100.00
21504;BME280;10913;51.992;9.228;2022-10-16T06:37:17;100066.56;;;12.67;100.00
21504;BME280;10913;51.992;9.228;2022-10-16T06:39:42;100062.88;;;12.74;100.00
21504;BME280;10913;51.992;9.228;2022-10-16T06:42:08;100060.09;;;12.81;100.00
21504;BME280;10913;51.992;9.228;2022-10-16T06:44:33;100081.19;;;12.87;100.00
21504;BME280;10913;51.992;9.228;2022-10-16T06:46:58;100073.97;;;12.95;100.00
21504;BME280;10913;51.992;9.228;2022-10-16T06:49:24;100079.06;;;13.04;100.00
21504;BME280;10913;51.992;9.228;2022-10-16T06:51:53;100073.47;;;13.19;100.00
21504;BME280;10913;51.992;9.228;2022-10-16T06:54:19;100068.75;;;13.35;100.00
21504;BME280;10913;51.992;9.228;2022-10-16T06:56:44;100091.38;;;13.51;100.00
21504;BME280;10913;51.992;9.228;2022-10-16T06:59:09;100094.66;;;13.62;100.00
21504;BME280;10913;51.992;9.228;2022-10-16T07:01:35;100096.19;;;13.74;100.00
21504;BME280;10913;51.992;9.228;2022-10-16T07:04:01;100094.13;;;13.85;100.00
21504;BME280;10913;51.992;9.228;2022-10-16T07:06:30;100092.13;;;13.96;100.00
21504;BME280;10913;51.992;9.228;2022-10-16T07:08:55;100092.66;;;14.10;100.00
21504;BME280;10913;51.992;9.228;2022-10-16T07:11:22;100097.50;;;14.29;100.00
21504;BME280;10913;51.992;9.228;2022-10-16T07:13:49;100095.41;;;14.43;100.00
21504;BME280;10913;51.992;9.228;2022-10-16T07:16:17;100109.22;;;14.57;100.00
21504;BME280;10913;51.992;9.228;2022-10-16T07:18:43;100112.38;;;14.71;100.00
21504;BME280;10913;51.992;9.228;2022-10-16T07:21:13;100120.97;;;14.81;100.00
21504;BME280;10913;51.992;9.228;2022-10-16T07:23:39;100115.31;;;14.95;100.00
21504;BME280;10913;51.992;9.228;2022-10-16T07:26:06;100112.53;;;15.89;100.00
21504;BME280;10913;51.992;9.228;2022-10-16T07:28:32;100108.66;;;17.51;100.00
21504;BME280;10913;51.992;9.228;2022-10-16T07:31:06;100109.41;;;18.44;94.76
21504;BME280;10913;51.992;9.228;2022-10-16T07:33:34;100116.66;;;19.43;90.98
21504;BME280;10913;51.992;9.228;2022-10-16T07:35:59;100114.66;;;20.05;86.78
21504;BME280;10913;51.992;9.228;2022-10-16T07:38:25;100124.63;;;20.39;85.90
21504;BME280;10913;51.992;9.228;2022-10-16T07:40:59;100118.19;;;20.94;83.00
21504;BME280;10913;51.992;9.228;2022-10-16T07:43:25;100126.06;;;21.15;82.24
21504;BME280;10913;51.992;9.228;2022-10-16T07:45:51;100134.69;;;21.04;82.79
21504;BME280;10913;51.992;9.228;2022-10-16T07:48:17;100130.28;;;20.86;82.39
21504;BME280;10913;51.992;9.228;2022-10-16T07:50:43;100143.16;;;20.96;80.40
21504;BME280;10913;51.992;9.228;2022-10-16T07:53:09;100133.25;;;22.13;79.87
21504;BME280;10913;51.992;9.228;2022-10-16T07:55:36;100132.69;;;23.42;75.03
21504;BME280;10913;51.992;9.228;2022-10-16T07:58:01;100134.75;;;23.67;72.19
21504;BME280;10913;51.992;9.228;2022-10-16T08:00:26;100149.75;;;23.43;73.23
21504;BME280;10913;51.992;9.228;2022-10-16T08:02:52;100152.41;;;22.84;73.58
21504;BME280;10913;51.992;9.228;2022-10-16T08:05:17;100149.88;;;22.20;75.82
21504;BME280;10913;51.992;9.228;2022-10-16T08:07:42;100159.63;;;21.41;77.55
21504;BME280;10913;51.992;9.228;2022-10-16T08:10:28;100172.06;;;20.74;80.20
21504;BME280;10913;51.992;9.228;2022-10-16T08:12:53;100176.91;;;20.30;81.33
21504;BME280;10913;51.992;9.228;2022-10-16T08:15:20;100179.53;;;20.50;81.76
21504;BME280;10913;51.992;9.228;2022-10-16T08:17:54;100177.28;;;21.29;80.36
21504;BME280;10913;51.992;9.228;2022-10-16T08:20:20;100165.94;;;22.98;74.59
21504;BME280;10913;51.992;9.228;2022-10-16T08:22:45;100164.78;;;24.98;69.29
21504;BME280;10913;51.992;9.228;2022-10-16T08:25:10;100159.13;;;25.92;64.98
21504;BME280;10913;51.992;9.228;2022-10-16T08:27:36;100167.75;;;26.70;63.87
21504;BME280;10913;51.992;9.228;2022-10-16T08:30:01;100173.34;;;26.19;64.72
21504;BME280;10913;51.992;9.228;2022-10-16T08:32:27;100170.16;;;25.25;66.26
21504;BME280;10913;51.992;9.228;2022-10-16T08:34:52;100174.56;;;25.14;66.94
21504;BME280;10913;51.992;9.228;2022-10-16T08:37:18;100170.03;;;25.14;66.50
21504;BME280;10913;51.992;9.228;2022-10-16T08:39:43;100177.75;;;24.39;67.96
21504;BME280;10913;51.992;9.228;2022-10-16T08:50:30;100190.06;;;21.41;76.09
21504;BME280;10913;51.992;9.228;2022-10-16T08:52:57;100195.66;;;21.87;75.51
21504;BME280;10913;51.992;9.228;2022-10-16T08:55:42;100197.13;;;22.25;74.00
21504;BME280;10913;51.992;9.228;2022-10-16T08:58:13;100197.69;;;22.62;73.26
21504;BME280;10913;51.992;9.228;2022-10-16T09:00:40;100208.84;;;22.24;73.58
21504;BME280;10913;51.992;9.228;2022-10-16T09:13:48;100215.84;;;25.81;66.10
21504;BME280;10913;51.992;9.228;2022-10-16T09:21:45;100220.94;;;26.96;63.34
21504;BME280;10913;51.992;9.228;2022-10-16T09:24:18;100222.69;;;27.08;61.60
21504;BME280;10913;51.992;9.228;2022-10-16T09:26:44;100225.09;;;27.00;61.96
21504;BME280;10913;51.992;9.228;2022-10-16T09:29:18;100234.09;;;27.25;62.06
21504;BME280;10913;51.992;9.228;2022-10-16T09:31:45;100239.88;;;27.55;62.05
21504;BME280;10913;51.992;9.228;2022-10-16T09:34:28;100237.22;;;27.77;60.24
21504;BME280;10913;51.992;9.228;2022-10-16T09:36:57;100234.47;;;27.66;60.28
21504;BME280;10913;51.992;9.228;2022-10-16T09:39:23;100245.25;;;27.44;61.30
21504;BME280;10913;51.992;9.228;2022-10-16T09:41:49;100252.06;;;26.78;61.89
21504;BME280;10913;51.992;9.228;2022-10-16T09:44:26;100248.56;;;25.25;63.28
21504;BME280;10913;51.992;9.228;2022-10-16T09:47:03;100260.56;;;24.67;64.86
21504;BME280;10913;51.992;9.228;2022-10-16T09:49:28;100256.28;;;23.94;66.94
21504;BME280;10913;51.992;9.228;2022-10-16T09:52:11;100263.38;;;23.36;68.60
21504;BME280;10913;51.992;9.228;2022-10-16T09:54:37;100267.91;;;23.36;69.21
21504;BME280;10913;51.992;9.228;2022-10-16T09:57:06;100260.13;;;23.76;68.70
21504;BME280;10913;51.992;9.228;2022-10-16T09:59:32;100265.06;;;23.97;67.64
21504;BME280;10913;51.992;9.228;2022-10-16T10:02:02;100265.78;;;23.41;67.31
21504;BME280;10913;51.992;9.228;2022-10-16T10:04:38;100263.66;;;23.62;67.48
21504;BME280;10913;51.992;9.228;2022-10-16T10:07:04;100272.84;;;23.74;68.93
21504;BME280;10913;51.992;9.228;2022-10-16T10:09:37;100271.19;;;23.85;68.20
21504;BME280;10913;51.992;9.228;2022-10-16T10:12:04;100275.44;;;24.03;68.28
21504;BME280;10913;51.992;9.228;2022-10-16T10:19:29;100278.66;;;24.53;64.91
21504;BME280;10913;51.992;9.228;2022-10-16T10:21:55;100290.31;;;24.39;65.42
21504;BME280;10913;51.992;9.228;2022-10-16T10:24:20;100283.59;;;24.32;66.91
21504;BME280;10913;51.992;9.228;2022-10-16T10:27:11;100289.63;;;24.21;66.13
21504;BME280;10913;51.992;9.228;2022-10-16T10:29:53;100292.78;;;23.99;65.60
21504;BME280;10913;51.992;9.228;2022-10-16T10:37:46;100301.38;;;24.20;67.35
21504;BME280;10913;51.992;9.228;2022-10-16T10:40:28;100304.31;;;24.31;66.71
21504;BME280;10913;51.992;9.228;2022-10-16T10:43:04;100306.44;;;24.26;65.55
21504;BME280;10913;51.992;9.228;2022-10-16T10:45:54;100301.72;;;24.30;64.69
21504;BME280;10913;51.992;9.228;2022-10-16T10:51:30;100292.75;;;24.29;65.73
21504;BME280;10913;51.992;9.228;2022-10-16T10:54:13;100292.50;;;24.18;66.02
21504;BME280;10913;51.992;9.228;2022-10-16T10:56:57;100300.59;;;23.90;64.51
21504;BME280;10913;51.992;9.228;2022-10-16T10:59:52;100297.91;;;23.76;66.00
21504;BME280;10913;51.992;9.228;2022-10-16T11:05:16;100301.13;;;23.52;65.58
21504;BME280;10913;51.992;9.228;2022-10-16T11:07:51;100289.47;;;23.52;66.43
21504;BME280;10913;51.992;9.228;2022-10-16T11:10:23;100288.09;;;23.59;66.78
21504;BME280;10913;51.992;9.228;2022-10-16T11:16:15;100307.13;;;22.96;65.25
21504;BME280;10913;51.992;9.228;2022-10-16T11:21:36;100307.91;;;22.82;67.12
21504;BME280;10913;51.992;9.228;2022-10-16T11:24:14;100304.94;;;22.71;66.34
21504;BME280;10913;51.992;9.228;2022-10-16T11:26:43;100314.38;;;22.62;67.72
21504;BME280;10913;51.992;9.228;2022-10-16T11:29:17;100301.97;;;22.76;67.76
21504;BME280;10913;51.992;9.228;2022-10-16T11:31:51;100305.66;;;22.90;67.34
21504;BME280;10913;51.992;9.228;2022-10-16T11:37:05;100311.28;;;22.86;65.01
21504;BME280;10913;51.992;9.228;2022-10-16T11:39:33;100318.66;;;22.66;65.45
21504;BME280;10913;51.992;9.228;2022-10-16T11:42:01;100313.97;;;22.54;66.20
21504;BME280;10913;51.992;9.228;2022-10-16T11:45:00;100317.22;;;22.28;65.95
21504;BME280;10913;51.992;9.228;2022-10-16T11:50:35;100318.94;;;21.96;68.96
21504;BME280;10913;51.992;9.228;2022-10-16T11:56:17;100312.91;;;22.08;69.37
21504;BME280;10913;51.992;9.228;2022-10-16T11:59:01;100304.78;;;22.25;69.10
21504;BME280;10913;51.992;9.228;2022-10-16T12:01:38;100307.88;;;22.35;68.77
21504;BME280;10913;51.992;9.228;2022-10-16T12:04:21;100308.38;;;22.42;68.57
21504;BME280;10913;51.992;9.228;2022-10-16T12:06:58;100309.00;;;22.47;66.29
21504;BME280;10913;51.992;9.228;2022-10-16T12:09:29;100324.34;;;22.45;67.49
21504;BME280;10913;51.992;9.228;2022-10-16T12:11:55;100317.31;;;22.42;66.40
21504;BME280;10913;51.992;9.228;2022-10-16T12:17:03;100313.34;;;22.49;67.99
21504;BME280;10913;51.992;9.228;2022-10-16T12:19:31;100312.72;;;22.60;68.12
21504;BME280;10913;51.992;9.228;2022-10-16T12:22:01;100323.94;;;22.68;66.44
21504;BME280;10913;51.992;9.228;2022-10-16T12:24:38;100323.06;;;22.52;65.98
21504;BME280;10913;51.992;9.228;2022-10-16T12:27:23;100320.72;;;22.46;67.17
21504;BME280;10913;51.992;9.228;2022-10-16T12:30:04;100326.19;;;22.60;67.57
21504;BME280;10913;51.992;9.228;2022-10-16T12:32:38;100328.31;;;22.71;67.63
21504;BME280;10913;51.992;9.228;2022-10-16T12:35:16;100334.41;;;22.74;67.66
21504;BME280;10913;51.992;9.228;2022-10-16T12:37:44;100329.66;;;22.62;68.08
21504;BME280;10913;51.992;9.228;2022-10-16T12:40:31;100336.63;;;22.50;68.19
21504;BME280;10913;51.992;9.228;2022-10-16T12:42:57;100342.00;;;22.34;67.46
21504;BME280;10913;51.992;9.228;2022-10-16T12:45:30;100338.34;;;22.36;68.16
21504;BME280;10913;51.992;9.228;2022-10-16T12:47:57;100347.38;;;22.34;68.54
21504;BME280;10913;51.992;9.228;2022-10-16T12:50:37;100351.66;;;22.21;68.70
21504;BME280;10913;51.992;9.228;2022-10-16T12:53:18;100355.72;;;21.95;68.77
21504;BME280;10913;51.992;9.228;2022-10-16T12:56:12;100358.31;;;21.80;69.76
21504;BME280;10913;51.992;9.228;2022-10-16T13:16:15;100373.28;;;21.68;68.59
21504;BME280;10913;51.992;9.228;2022-10-16T13:21:23;100382.47;;;21.64;68.54
21504;BME280;10913;51.992;9.228;2022-10-16T13:29:19;100388.16;;;21.22;68.84
21504;BME280;10913;51.992;9.228;2022-10-16T13:31:45;100395.06;;;21.09;69.22
21504;BME280;10913;51.992;9.228;2022-10-16T13:34:19;100397.28;;;20.99;69.82
21504;BME280;10913;51.992;9.228;2022-10-16T13:36:49;100396.88;;;20.89;70.24
21504;BME280;10913;51.992;9.228;2022-10-16T13:39:29;100399.84;;;20.83;71.05
21504;BME280;10913;51.992;9.228;2022-10-16T13:44:36;100394.94;;;20.74;71.43
21504;BME280;10913;51.992;9.228;2022-10-16T13:47:02;100394.88;;;20.76;71.91
21504;BME280;10913;51.992;9.228;2022-10-16T13:49:28;100387.81;;;20.73;72.57
21504;BME280;10913;51.992;9.228;2022-10-16T13:51:55;100390.38;;;20.76;72.92
21504;BME280;10913;51.992;9.228;2022-10-16T13:54:21;100406.47;;;20.76;73.34
21504;BME280;10913;51.992;9.228;2022-10-16T13:56:47;100407.09;;;20.81;72.73
21504;BME280;10913;51.992;9.228;2022-10-16T13:59:27;100411.31;;;20.87;73.00
21504;BME280;10913;51.992;9.228;2022-10-16T14:01:58;100412.19;;;20.87;71.68
21504;BME280;10913;51.992;9.228;2022-10-16T14:04:32;100410.31;;;20.89;72.06
21504;BME280;10913;51.992;9.228;2022-10-16T14:06:58;100412.47;;;20.81;71.63
21504;BME280;10913;51.992;9.228;2022-10-16T14:09:26;100409.72;;;20.83;71.98
21504;BME280;10913;51.992;9.228;2022-10-16T14:14:23;100419.72;;;20.79;72.36
21504;BME280;10913;51.992;9.228;2022-10-16T14:16:50;100417.72;;;20.84;73.26
21504;BME280;10913;51.992;9.228;2022-10-16T14:19:24;100414.94;;;20.86;73.30
21504;BME280;10913;51.992;9.228;2022-10-16T14:21:51;100412.34;;;20.84;73.07
21504;BME280;10913;51.992;9.228;2022-10-16T14:24:32;100417.34;;;20.73;72.22
21504;BME280;10913;51.992;9.228;2022-10-16T14:26:59;100417.69;;;20.66;72.69
21504;BME280;10913;51.992;9.228;2022-10-16T14:29:26;100411.72;;;20.59;73.07
21504;BME280;10913;51.992;9.228;2022-10-16T14:32:04;100422.63;;;20.56;73.35
21504;BME280;10913;51.992;9.228;2022-10-16T14:36:59;100417.53;;;20.50;73.95
21504;BME280;10913;51.992;9.228;2022-10-16T14:39:27;100421.22;;;20.47;74.50
21504;BME280;10913;51.992;9.228;2022-10-16T14:41:55;100426.53;;;20.49;74.62
21504;BME280;10913;51.992;9.228;2022-10-16T14:44:28;100426.78;;;20.43;73.30
21504;BME280;10913;51.992;9.228;2022-10-16T14:46:54;100426.94;;;20.40;72.62
21504;BME280;10913;51.992;9.228;2022-10-16T14:49:20;100425.31;;;20.36;72.93
21504;BME280;10913;51.992;9.228;2022-10-16T14:51:47;100424.44;;;20.35;73.61